Welcome to Des Moines Iowa Weather. I am an independent private personal weather station on the Northwest Side of Des Moines, Iowa. Just East of Windsor Heights and just West of Glendale . This site is also mobile friendly.

There are no active watches, warnings or advisories


Visit our other weather sites:

Historical Data

Weather Station Setup



Weather Underground History page Text

Daily Summary for July 21, 2017 Units:  English    Metric   Both
« Previous Day
Next Day »
Daily Weekly Monthly Yearly Custom
  High: Low: Average:
Temperature: 99.2 °F 73.7 °F 84.3 °F
Dew Point: 83.0 °F 72.0 °F 76.2 °F
Humidity: 96 % 49 % 79 %
Wind Speed: 5.0 mph 0.0 mph 0.3 mph
Wind Gust: 10.0 mph - -
Wind:- - SE
Pressure: 29.86 in 29.63 in -
Precipitation: 0.02 in    
Historical Graphs
 
 
Tabular Data for July 21, 2017
Time Temperature Dew Point Pressure Wind Wind Speed Wind Gust Humidity Rainfall Rate (Hourly)
00:04 74.4 °F 72.0 °F 29.85 in Calm     93 % 0.00 in
00:19 74.2 °F 72.0 °F 29.86 in Calm     94 % 0.00 in
00:34 74.2 °F 72.0 °F 29.86 in Calm     94 % 0.00 in
00:49 74.0 °F 72.0 °F 29.86 in Calm   2.0 mph 94 % 0.00 in
01:04 74.0 °F 72.0 °F 29.85 in Calm     94 % 0.00 in
01:19 73.9 °F 72.0 °F 29.85 in Calm     94 % 0.00 in
01:34 73.9 °F 72.0 °F 29.85 in Calm     94 % 0.00 in
01:50 73.9 °F 72.0 °F 29.84 in Calm     94 % 0.00 in
02:04 73.9 °F 72.0 °F 29.84 in Calm     94 % 0.00 in
02:19 74.0 °F 72.0 °F 29.85 in Calm     94 % 0.00 in
02:34 74.0 °F 72.0 °F 29.85 in Calm     94 % 0.00 in
02:49 73.9 °F 72.0 °F 29.85 in Calm     94 % 0.00 in
03:04 73.9 °F 72.0 °F 29.84 in Calm     94 % 0.00 in
03:19 73.8 °F 72.0 °F 29.84 in Calm     94 % 0.00 in
03:34 73.7 °F 72.0 °F 29.84 in Calm     94 % 0.00 in
03:49 73.7 °F 72.0 °F 29.83 in Calm     94 % 0.00 in
04:05 73.9 °F 72.0 °F 29.83 in Calm   2.0 mph 95 % 0.01 in
04:20 74.0 °F 73.0 °F 29.83 in Calm   2.0 mph 95 % 0.01 in
04:35 74.2 °F 73.0 °F 29.82 in Calm   3.0 mph 95 % 0.01 in
04:50 74.1 °F 73.0 °F 29.82 in Calm     95 % 0.01 in
05:05 74.0 °F 73.0 °F 29.82 in Calm     95 % 0.00 in
05:20 74.0 °F 73.0 °F 29.82 in Calm     95 % 0.01 in
05:35 73.8 °F 72.0 °F 29.81 in Calm     95 % 0.01 in
05:50 73.8 °F 72.0 °F 29.81 in Calm     95 % 0.01 in
06:05 73.7 °F 72.0 °F 29.81 in Calm     95 % 0.00 in
06:20 73.7 °F 72.0 °F 29.81 in Calm     95 % 0.00 in
06:35 73.7 °F 72.0 °F 29.81 in Calm     95 % 0.00 in
06:50 74.0 °F 73.0 °F 29.81 in Calm     95 % 0.00 in
07:05 74.3 °F 73.0 °F 29.80 in Calm     96 % 0.00 in
07:20 74.6 °F 73.0 °F 29.81 in Calm     96 % 0.00 in
07:35 75.1 °F 74.0 °F 29.81 in Calm   1.0 mph 96 % 0.00 in
07:50 75.8 °F 75.0 °F 29.82 in Calm     96 % 0.00 in
08:05 76.6 °F 75.0 °F 29.82 in Calm   1.0 mph 96 % 0.00 in
08:20 77.4 °F 76.0 °F 29.82 in Calm   2.0 mph 96 % 0.00 in
08:35 78.1 °F 77.0 °F 29.81 in Calm     96 % 0.00 in
08:50 78.7 °F 78.0 °F 29.81 in Calm   1.0 mph 96 % 0.00 in
09:06 79.1 °F 78.0 °F 29.81 in Calm   3.0 mph 96 % 0.00 in
09:21 79.6 °F 78.0 °F 29.81 in Calm   2.0 mph 95 % 0.00 in
09:36 79.9 °F 78.0 °F 29.81 in SW 2.0 mph 4.0 mph 94 % 0.00 in
09:51 80.6 °F 78.0 °F 29.81 in Calm   2.0 mph 92 % 0.00 in
10:06 81.9 °F 79.0 °F 29.80 in Calm   5.0 mph 90 % 0.00 in
10:21 83.2 °F 79.0 °F 29.81 in Calm   4.0 mph 86 % 0.00 in
10:36 84.2 °F 78.0 °F 29.80 in Calm   4.0 mph 82 % 0.00 in
10:51 84.8 °F 78.0 °F 29.80 in Calm   4.0 mph 80 % 0.00 in
11:06 85.3 °F 78.0 °F 29.79 in Calm   2.0 mph 79 % 0.00 in
11:21 86.1 °F 79.0 °F 29.79 in Calm   3.0 mph 79 % 0.00 in
11:36 87.6 °F 79.0 °F 29.78 in Calm   3.0 mph 76 % 0.00 in
11:51 88.9 °F 79.0 °F 29.78 in Calm   2.0 mph 72 % 0.00 in
12:06 90.8 °F 80.0 °F 29.78 in SSE 5.0 mph 5.0 mph 71 % 0.00 in
12:21 92.0 °F 79.0 °F 29.78 in NE 3.0 mph 5.0 mph 66 % 0.00 in
12:36 92.3 °F 78.0 °F 29.78 in South 2.0 mph 4.0 mph 64 % 0.00 in
12:51 93.3 °F 80.0 °F 29.77 in Calm   7.0 mph 65 % 0.00 in
13:06 93.9 °F 79.0 °F 29.77 in NE 1.0 mph 7.0 mph 62 % 0.00 in
13:21 94.9 °F 79.0 °F 29.76 in Calm   3.0 mph 60 % 0.00 in
13:37 95.8 °F 78.0 °F 29.75 in Calm   5.0 mph 57 % 0.00 in
13:52 96.5 °F 78.0 °F 29.74 in SSE 2.0 mph 3.0 mph 56 % 0.00 in
14:07 97.0 °F 78.0 °F 29.73 in Calm   9.0 mph 54 % 0.00 in
14:22 97.5 °F 77.0 °F 29.72 in Calm   9.0 mph 52 % 0.00 in
14:37 98.0 °F 77.0 °F 29.71 in SE 3.0 mph 6.0 mph 51 % 0.00 in
14:52 98.5 °F 77.0 °F 29.70 in Calm   3.0 mph 50 % 0.00 in
15:07 99.2 °F 77.0 °F 29.71 in Calm   5.0 mph 49 % 0.00 in
15:22 97.3 °F 78.0 °F 29.71 in Calm   5.0 mph 54 % 0.00 in
15:37 98.1 °F 76.0 °F 29.71 in Calm   10.0 mph 49 % 0.00 in
15:52 98.3 °F 79.0 °F 29.71 in Calm   4.0 mph 54 % 0.00 in
16:07 97.6 °F 75.0 °F 29.71 in Calm   4.0 mph 49 % 0.00 in
16:22 97.0 °F 75.0 °F 29.71 in Calm   4.0 mph 50 % 0.00 in
16:37 96.2 °F 78.0 °F 29.72 in Calm   6.0 mph 56 % 0.00 in
16:52 93.8 °F 80.0 °F 29.71 in North 2.0 mph 4.0 mph 65 % 0.00 in
17:07 92.2 °F 81.0 °F 29.72 in NE 3.0 mph 3.0 mph 69 % 0.00 in
17:22 90.5 °F 81.0 °F 29.72 in NNW 1.0 mph 7.0 mph 73 % 0.00 in
17:37 89.3 °F 80.0 °F 29.70 in Calm   2.0 mph 75 % 0.00 in
17:52 89.1 °F 82.0 °F 29.68 in Calm   1.0 mph 80 % 0.00 in
18:07 90.2 °F 83.0 °F 29.68 in Calm   1.0 mph 78 % 0.00 in
18:22 91.3 °F 81.0 °F 29.69 in Calm     72 % 0.00 in
18:37 92.0 °F 82.0 °F 29.68 in Calm   3.0 mph 73 % 0.00 in
18:52 91.6 °F 82.0 °F 29.68 in Calm   2.0 mph 74 % 0.00 in
19:07 91.2 °F 82.0 °F 29.67 in Calm     75 % 0.00 in
19:22 90.7 °F 79.0 °F 29.66 in ESE 3.0 mph 4.0 mph 68 % 0.00 in
19:37 90.8 °F 78.0 °F 29.66 in Calm   7.0 mph 66 % 0.00 in
19:52 90.9 °F 78.0 °F 29.65 in Calm   4.0 mph 65 % 0.00 in
20:07 90.7 °F 77.0 °F 29.65 in Calm   3.0 mph 65 % 0.00 in
20:22 90.2 °F 77.0 °F 29.64 in Calm   4.0 mph 65 % 0.00 in
20:37 89.7 °F 77.0 °F 29.64 in Calm   5.0 mph 66 % 0.00 in
20:52 89.1 °F 77.0 °F 29.64 in Calm   2.0 mph 67 % 0.00 in
21:08 88.6 °F 77.0 °F 29.65 in Calm   3.0 mph 68 % 0.00 in
21:22 88.1 °F 76.0 °F 29.65 in Calm   7.0 mph 68 % 0.00 in
21:37 87.6 °F 76.0 °F 29.65 in Calm   4.0 mph 69 % 0.00 in
21:52 87.2 °F 76.0 °F 29.65 in WSW 3.0 mph 4.0 mph 69 % 0.00 in
22:07 86.8 °F 76.0 °F 29.66 in Calm   2.0 mph 71 % 0.00 in
22:22 86.5 °F 76.0 °F 29.66 in Calm   1.0 mph 71 % 0.00 in
22:37 86.3 °F 76.0 °F 29.66 in Calm   3.0 mph 72 % 0.00 in
22:52 86.1 °F 77.0 °F 29.65 in Calm   3.0 mph 73 % 0.00 in
23:07 85.9 °F 77.0 °F 29.65 in Calm   4.0 mph 74 % 0.00 in
23:23 85.7 °F 77.0 °F 29.64 in South 2.0 mph 4.0 mph 75 % 0.00 in
23:37 85.4 °F 77.0 °F 29.64 in Calm   3.0 mph 75 % 0.00 in
23:53 85.3 °F 77.0 °F 29.63 in Calm   4.0 mph 76 % 0.00 in
Des Moines Weather and Climate
Compliments of Weather Underground - 3 mb

Script developed by  Jim McMurry - jmcmurry@mwt.net Adapted for the template by  Wim van der Kuil - Leuven-Template.eu

You find our weather info also at:

Weather Underground

Equipment we use:

Weather-station
Davis VP2 Plus

Weather-program
Davis Weatherlink.Com

Weather-server
iMac (Retina 4K, 21.5-inch, Late 2015)

Provider
Hostmonster.com

Davis VP2 Plus

Davis Weatherlink.Com

iMac (Retina 4K, 21.5-inch, Late 2015)

Hostmonster.com